Time;durP1;ratioP1;P1;durP2;ratioP2;P2;SDS_P1;SDS_P2;PMS_P1;PMS_P2;Temp;Humidity;BMP_temperature;BMP_pressure;BME280_temperature;BME280_humidity;BME280_pressure;Samples;Min_cycle;Max_cycle;Signal;HPM_P1;HPM_P2
2022/03/14 00:01:58;;;;;;;2.50;1.60;;;21.50;42.70;;;;;;4998290;28;88643;-72
2022/03/14 00:04:27;;;;;;;3.67;1.87;;;21.50;42.70;;;;;;4987654;28;89504;-71
2022/03/14 00:06:55;;;;;;;2.53;1.50;;;21.40;42.70;;;;;;4979103;28;90083;-72
2022/03/14 00:09:24;;;;;;;2.57;1.83;;;21.50;42.80;;;;;;4979716;28;88737;-72
2022/03/14 00:11:54;;;;;;;2.00;1.80;;;21.50;42.80;;;;;;4979010;28;88639;-71
2022/03/14 00:14:25;;;;;;;2.07;1.60;;;21.40;43.00;;;;;;4978562;28;90772;-71
2022/03/14 00:16:56;;;;;;;1.60;1.23;;;21.40;42.80;;;;;;4979057;28;88579;-68
2022/03/14 00:19:25;;;;;;;2.13;1.37;;;21.50;42.80;;;;;;4977615;28;88730;-71
2022/03/14 00:21:52;;;;;;;4.77;1.40;;;21.50;43.40;;;;;;4976031;28;88705;-70
2022/03/14 00:24:20;;;;;;;2.67;1.47;;;21.50;42.80;;;;;;4978880;28;89631;-70
2022/03/14 00:26:48;;;;;;;2.60;1.57;;;21.50;42.90;;;;;;4964540;28;90048;-72
2022/03/14 00:29:18;;;;;;;2.43;1.33;;;21.50;42.90;;;;;;4962339;28;88777;-71
2022/03/14 00:31:46;;;;;;;2.63;1.23;;;21.50;42.90;;;;;;4979628;28;88481;-71
2022/03/14 00:34:16;;;;;;;8.53;1.40;;;21.50;43.00;;;;;;4978630;28;91004;-71
2022/03/14 00:36:44;;;;;;;2.90;1.57;;;21.50;43.00;;;;;;4978670;28;89108;-72
2022/03/14 00:39:12;;;;;;;2.37;2.17;;;21.50;43.20;;;;;;4978987;28;88945;-72
2022/03/14 00:41:40;;;;;;;2.13;1.40;;;21.50;43.20;;;;;;4978744;28;88478;-72
2022/03/14 00:44:08;;;;;;;1.80;1.47;;;21.50;43.30;;;;;;4978242;28;90627;-71
2022/03/14 00:46:37;;;;;;;1.67;1.20;;;21.50;43.30;;;;;;4978595;28;89541;-72
2022/03/14 00:49:06;;;;;;;3.17;1.17;;;21.40;43.20;;;;;;4979662;28;88834;-72
2022/03/14 00:51:35;;;;;;;2.33;1.40;;;21.50;43.30;;;;;;4980019;28;88432;-72
2022/03/14 00:54:03;;;;;;;4.17;1.20;;;21.50;43.40;;;;;;4978628;28;90705;-71
2022/03/14 00:56:32;;;;;;;2.93;1.40;;;21.50;43.40;;;;;;4978711;28;90035;-71
2022/03/14 00:59:00;;;;;;;2.03;1.50;;;21.50;43.40;;;;;;4978712;28;89855;-71
2022/03/14 01:01:28;;;;;;;2.37;1.60;;;21.50;44.10;;;;;;4980388;28;88680;-72
2022/03/14 01:03:58;;;;;;;1.90;1.60;;;21.50;43.50;;;;;;4982536;28;89608;-73
2022/03/14 01:06:27;;;;;;;2.30;1.73;;;21.50;43.50;;;;;;4979150;28;90150;-77
2022/03/14 01:08:57;;;;;;;3.37;1.57;;;21.50;44.20;;;;;;4978339;28;88417;-74
2022/03/14 01:11:24;;;;;;;2.45;1.88;;;21.50;43.60;;;;;;4977071;28;88522;-74
2022/03/14 01:13:52;;;;;;;2.57;1.37;;;21.30;44.10;;;;;;4988754;28;89312;-74
2022/03/14 01:16:20;;;;;;;2.50;1.40;;;21.60;43.80;;;;;;5000420;28;89003;-74
2022/03/14 01:18:48;;;;;;;1.30;1.20;;;21.70;43.60;;;;;;5002722;28;89433;-75
2022/03/14 01:21:16;;;;;;;2.70;1.77;;;21.70;43.50;;;;;;4992690;28;88409;-74
2022/03/14 01:23:44;;;;;;;2.63;1.83;;;21.70;43.60;;;;;;4981668;28;89590;-74
2022/03/14 01:26:14;;;;;;;1.73;1.40;;;21.60;43.50;;;;;;4982018;28;89650;-74
2022/03/14 01:28:42;;;;;;;2.57;1.87;;;21.60;43.50;;;;;;4981836;28;88290;-74
2022/03/14 01:31:10;;;;;;;1.43;1.23;;;21.50;43.40;;;;;;4982190;28;88603;-74
2022/03/14 01:33:38;;;;;;;3.00;1.63;;;21.50;43.50;;;;;;4982208;28;90628;-74
2022/03/14 01:36:06;;;;;;;1.80;1.30;;;21.50;43.50;;;;;;4980653;28;89495;-74
2022/03/14 01:38:34;;;;;;;2.10;1.33;;;21.40;43.40;;;;;;4979340;28;88775;-74
2022/03/14 01:41:02;;;;;;;2.10;1.43;;;21.40;43.40;;;;;;4976137;28;88513;-74
2022/03/14 01:43:31;;;;;;;2.53;1.40;;;21.40;43.40;;;;;;4979437;28;90154;-74
2022/03/14 01:45:59;;;;;;;1.50;1.40;;;21.40;43.50;;;;;;4982152;28;90046;-75
2022/03/14 01:48:28;;;;;;;3.30;1.60;;;21.40;43.40;;;;;;4980852;28;89624;-74
2022/03/14 01:50:56;;;;;;;2.03;1.23;;;21.40;43.90;;;;;;4979384;28;88502;-74
2022/03/14 01:53:24;;;;;;;1.43;1.33;;;21.30;43.40;;;;;;4979312;28;90584;-74
2022/03/14 01:55:52;;;;;;;2.57;1.33;;;21.30;43.40;;;;;;4978519;28;90766;-75
2022/03/14 01:58:21;;;;;;;1.40;1.30;;;21.30;43.40;;;;;;4976027;28;89292;-74
2022/03/14 02:00:51;;;;;;;2.10;1.57;;;21.30;43.40;;;;;;4979704;28;88609;-74
2022/03/14 02:03:19;;;;;;;2.83;1.63;;;21.30;43.40;;;;;;4977629;28;89710;-74
2022/03/14 02:05:48;;;;;;;1.70;1.40;;;21.30;43.40;;;;;;4999209;28;89238;-74
2022/03/14 02:08:16;;;;;;;1.97;1.40;;;21.30;43.40;;;;;;4997830;28;90523;-74
2022/03/14 02:10:44;;;;;;;1.20;1.10;;;21.30;43.40;;;;;;4999575;28;88638;-74
2022/03/14 02:13:12;;;;;;;2.13;1.10;;;21.30;43.40;;;;;;4996124;28;89929;-74
2022/03/14 02:15:40;;;;;;;1.90;1.40;;;21.30;43.40;;;;;;4998113;28;90208;-74
2022/03/14 02:18:10;;;;;;;1.63;1.10;;;21.30;43.40;;;;;;4996417;28;88702;-74
2022/03/14 02:20:40;;;;;;;1.30;1.20;;;21.30;43.30;;;;;;4999579;28;88642;-74
2022/03/14 02:23:08;;;;;;;1.70;1.33;;;21.30;43.30;;;;;;4999093;28;90464;-75
2022/03/14 02:25:36;;;;;;;2.70;1.30;;;21.30;43.30;;;;;;4999128;28;89980;-75
2022/03/14 02:28:05;;;;;;;1.77;1.10;;;21.30;43.30;;;;;;4998570;28;89026;-74
2022/03/14 02:30:33;;;;;;;2.07;1.50;;;21.30;43.20;;;;;;4998034;28;89290;-75
2022/03/14 02:33:01;;;;;;;2.17;1.60;;;21.30;43.20;;;;;;4999369;28;90546;-74
2022/03/14 02:35:30;;;;;;;1.93;1.17;;;21.30;43.80;;;;;;4998844;28;88466;-74
2022/03/14 02:37:59;;;;;;;1.33;1.17;;;21.30;43.20;;;;;;4998664;28;89614;-74
2022/03/14 02:40:27;;;;;;;1.20;1.10;;;21.20;43.10;;;;;;4997767;28;89717;-75
2022/03/14 02:42:56;;;;;;;2.33;1.27;;;21.30;43.20;;;;;;4999467;28;94502;-74
2022/03/14 02:45:24;;;;;;;1.83;1.10;;;21.20;43.10;;;;;;4999443;28;89453;-73
2022/03/14 02:47:52;;;;;;;1.57;1.10;;;21.20;43.00;;;;;;4998846;28;89283;-74
2022/03/14 02:50:20;;;;;;;1.43;1.30;;;21.20;43.00;;;;;;4998008;28;88904;-74
2022/03/14 02:52:48;;;;;;;1.33;1.13;;;21.20;43.00;;;;;;4998797;28;91030;-74
2022/03/14 02:55:21;;;;;;;0.97;0.93;;;21.20;43.00;;;;;;4999002;28;89647;-75
2022/03/14 02:57:49;;;;;;;1.13;1.03;;;21.20;43.00;;;;;;4998122;28;89324;-74
2022/03/14 03:00:17;;;;;;;1.63;1.20;;;21.20;43.00;;;;;;4997920;28;88789;-75
2022/03/14 03:02:45;;;;;;;1.37;1.27;;;21.20;43.70;;;;;;4998119;28;91559;-75
2022/03/14 03:05:13;;;;;;;1.07;0.90;;;21.20;43.00;;;;;;4998963;28;89412;-75
2022/03/14 03:07:41;;;;;;;1.07;0.90;;;21.20;43.00;;;;;;4999834;28;90330;-75
2022/03/14 03:10:11;;;;;;;1.60;1.10;;;21.20;43.00;;;;;;4997299;28;88425;-75
2022/03/14 03:12:40;;;;;;;1.33;1.00;;;21.20;43.00;;;;;;4998395;28;89153;-75
2022/03/14 03:15:15;;;;;;;1.17;1.07;;;21.20;43.00;;;;;;4996754;28;89982;-75
2022/03/14 03:17:46;;;;;;;1.83;0.90;;;21.10;42.90;;;;;;4998162;28;89565;-75
2022/03/14 03:20:14;;;;;;;1.70;1.33;;;21.20;43.00;;;;;;4998563;28;88648;-74
2022/03/14 03:22:42;;;;;;;1.77;0.97;;;21.10;42.90;;;;;;4997975;28;89561;-74
2022/03/14 03:25:10;;;;;;;1.70;1.03;;;21.10;42.90;;;;;;4997959;28;90062;-74
2022/03/14 03:27:40;;;;;;;1.37;1.07;;;21.10;42.90;;;;;;4998931;28;89414;-74
2022/03/14 03:30:08;;;;;;;1.43;1.17;;;21.10;42.90;;;;;;4998595;28;88507;-74
2022/03/14 03:32:36;;;;;;;1.93;0.83;;;21.10;42.90;;;;;;4998046;28;89211;-74
2022/03/14 03:35:05;;;;;;;1.67;1.00;;;21.10;42.90;;;;;;4997046;28;89002;-74
2022/03/14 03:37:33;;;;;;;1.30;0.80;;;21.10;42.90;;;;;;4997506;28;88727;-80
2022/03/14 03:40:01;;;;;;;1.73;0.87;;;21.10;43.20;;;;;;4996751;28;88614;-80
2022/03/14 03:42:29;;;;;;;0.87;0.77;;;21.10;42.90;;;;;;4994047;28;90008;-80
2022/03/14 03:44:59;;;;;;;1.53;1.00;;;21.10;42.90;;;;;;4998076;28;90197;-76
2022/03/14 03:47:27;;;;;;;0.97;0.83;;;21.10;42.90;;;;;;5003517;28;88530;-76
2022/03/14 03:49:55;;;;;;;1.30;0.80;;;21.10;42.90;;;;;;4998985;28;88495;-76
2022/03/14 03:52:23;;;;;;;1.00;0.90;;;21.10;42.90;;;;;;4995229;28;90987;-74
2022/03/14 03:54:51;;;;;;;1.23;0.90;;;21.10;42.90;;;;;;4996713;28;88987;-75
2022/03/14 03:57:19;;;;;;;1.30;1.10;;;21.10;43.00;;;;;;4995254;28;88859;-73
2022/03/14 03:59:47;;;;;;;1.50;0.80;;;21.10;43.00;;;;;;4998336;28;88577;-69
2022/03/14 04:02:19;;;;;;;0.90;0.83;;;21.10;43.10;;;;;;4997519;28;91077;-68
2022/03/14 04:04:48;;;;;;;1.13;0.80;;;21.10;43.20;;;;;;4996974;28;90976;-69
2022/03/14 04:07:23;;;;;;;1.63;0.90;;;21.10;43.20;;;;;;4993412;28;88847;-68
2022/03/14 04:09:55;;;;;;;3.03;1.00;;;21.10;43.30;;;;;;4997523;28;88677;-68
2022/03/14 04:12:24;;;;;;;1.40;1.10;;;21.20;43.40;;;;;;4994502;28;90190;-69
2022/03/14 04:14:52;;;;;;;0.90;0.90;;;21.20;43.50;;;;;;4994600;28;90147;-68
2022/03/14 04:17:25;;;;;;;1.13;0.93;;;21.20;43.60;;;;;;5000015;28;89066;-69
2022/03/14 04:19:53;;;;;;;2.47;1.47;;;21.20;43.80;;;;;;4967599;28;88657;-69
2022/03/14 04:22:21;;;;;;;1.90;1.10;;;21.20;43.80;;;;;;4979793;28;90616;-69
2022/03/14 04:24:52;;;;;;;1.03;0.50;;;21.20;43.90;;;;;;4980645;28;89605;-69
2022/03/14 04:27:20;;;;;;;1.70;1.03;;;21.40;44.20;;;;;;4979888;28;88854;-69
2022/03/14 04:29:48;;;;;;;1.53;0.70;;;21.20;44.10;;;;;;4979404;28;88641;-70
2022/03/14 04:32:29;;;;;;;0.60;0.60;;;21.20;44.10;;;;;;4980695;28;89728;-69
2022/03/14 04:34:57;;;;;;;1.40;0.97;;;21.20;44.20;;;;;;4980140;28;91758;-71
2022/03/14 04:37:25;;;;;;;2.00;0.93;;;21.30;44.40;;;;;;4994802;28;89435;-68
2022/03/14 04:39:54;;;;;;;1.53;1.20;;;21.20;44.30;;;;;;4994124;28;89036;-69
2022/03/14 04:42:23;;;;;;;2.17;1.33;;;21.20;44.40;;;;;;4988252;28;93759;-68
2022/03/14 04:44:51;;;;;;;3.13;1.43;;;21.20;44.40;;;;;;4996176;28;91424;-68
2022/03/14 04:47:20;;;;;;;2.17;1.57;;;21.20;44.40;;;;;;4990457;28;89074;-69
2022/03/14 04:49:49;;;;;;;2.93;2.10;;;21.20;44.40;;;;;;4998741;28;90053;-69
2022/03/14 04:52:17;;;;;;;2.00;1.67;;;21.20;44.30;;;;;;5002949;28;89885;-69
2022/03/14 04:54:45;;;;;;;3.20;1.90;;;21.20;44.30;;;;;;4999053;28;89011;-69
2022/03/14 04:57:13;;;;;;;2.13;1.80;;;21.10;44.30;;;;;;4993599;28;89030;-70
2022/03/14 04:59:41;;;;;;;3.50;1.93;;;21.10;44.30;;;;;;4994248;28;90038;-69
2022/03/14 05:02:10;;;;;;;2.77;2.27;;;21.10;44.20;;;;;;4999367;28;90986;-69
2022/03/14 05:04:38;;;;;;;2.57;1.90;;;21.10;44.20;;;;;;4996339;28;89326;-69
2022/03/14 05:07:08;;;;;;;2.60;1.93;;;21.10;44.20;;;;;;4998577;28;89687;-69
2022/03/14 05:09:36;;;;;;;1.90;1.50;;;21.00;44.10;;;;;;4999119;28;90273;-69
2022/03/14 05:12:04;;;;;;;1.80;1.23;;;21.00;44.20;;;;;;4995977;28;89569;-70
2022/03/14 05:14:32;;;;;;;3.33;1.07;;;21.00;44.20;;;;;;4999776;28;89711;-69
2022/03/14 05:17:00;;;;;;;1.50;1.27;;;20.90;44.10;;;;;;4998279;28;88569;-69
2022/03/14 05:19:28;;;;;;;2.77;1.13;;;21.00;44.10;;;;;;4989027;28;88677;-69
2022/03/14 05:21:56;;;;;;;2.47;1.40;;;20.90;44.00;;;;;;4992157;28;90401;-69
2022/03/14 05:24:25;;;;;;;1.03;0.83;;;20.90;43.90;;;;;;4989047;28;89972;-69
2022/03/14 05:26:57;;;;;;;1.33;0.97;;;20.90;43.90;;;;;;4990469;28;88619;-70
2022/03/14 05:29:25;;;;;;;1.20;1.10;;;20.90;43.90;;;;;;4992422;28;88793;-70
2022/03/14 05:31:53;;;;;;;3.23;1.30;;;20.90;43.90;;;;;;4999829;28;90122;-69
2022/03/14 05:34:21;;;;;;;0.80;0.80;;;20.90;43.80;;;;;;4995868;28;89998;-68
2022/03/14 05:36:49;;;;;;;1.03;0.70;;;20.90;43.80;;;;;;4998223;28;88540;-68
2022/03/14 05:39:17;;;;;;;2.10;1.40;;;20.90;43.80;;;;;;4993908;28;88642;-66
2022/03/14 05:41:46;;;;;;;1.27;1.00;;;20.80;43.80;;;;;;4999331;28;90659;-69
2022/03/14 05:44:14;;;;;;;3.23;1.13;;;20.80;43.80;;;;;;4999061;28;90441;-66
2022/03/14 05:46:42;;;;;;;1.70;1.17;;;20.80;43.80;;;;;;4997954;28;88976;-67
2022/03/14 05:49:10;;;;;;;1.20;1.03;;;20.80;43.80;;;;;;4998519;28;88679;-69
2022/03/14 05:51:39;;;;;;;1.30;1.20;;;20.80;43.90;;;;;;4999186;28;90618;-69
2022/03/14 05:54:08;;;;;;;1.20;0.87;;;20.80;43.90;;;;;;4999954;28;90174;-68
2022/03/14 05:56:36;;;;;;;1.27;0.70;;;20.80;43.90;;;;;;4998618;28;89657;-69
2022/03/14 05:59:10;;;;;;;0.90;0.90;;;20.80;43.90;;;;;;4992464;28;90216;-67
2022/03/14 06:01:38;;;;;;;1.27;1.00;;;20.90;43.90;;;;;;4995395;28;89358;-67
2022/03/14 06:04:06;;;;;;;1.03;0.70;;;20.90;43.90;;;;;;4997437;28;92901;-67
2022/03/14 06:06:39;;;;;;;2.17;0.97;;;20.90;43.90;;;;;;4997390;28;88752;-68
2022/03/14 06:09:07;;;;;;;1.30;0.77;;;20.90;43.90;;;;;;4997065;28;89881;-67
2022/03/14 06:11:38;;;;;;;1.23;0.77;;;20.90;44.10;;;;;;4999863;28;90870;-66
2022/03/14 06:14:07;;;;;;;0.80;0.80;;;20.90;44.00;;;;;;4995703;28;90317;-67
2022/03/14 06:16:35;;;;;;;0.60;0.50;;;20.90;44.10;;;;;;4998808;28;88774;-67
2022/03/14 06:19:03;;;;;;;1.47;0.90;;;20.90;44.10;;;;;;4991552;28;88674;-67
2022/03/14 06:21:34;;;;;;;1.00;0.80;;;20.90;44.10;;;;;;4994529;28;90215;-67
2022/03/14 06:24:03;;;;;;;1.63;1.10;;;21.00;44.20;;;;;;4995004;28;89923;-68
2022/03/14 06:26:34;;;;;;;2.83;0.77;;;20.90;44.20;;;;;;4999178;28;89704;-67
2022/03/14 06:29:02;;;;;;;1.47;0.97;;;21.00;44.30;;;;;;4995790;28;88627;-68
2022/03/14 06:31:32;;;;;;;0.57;0.57;;;21.00;44.30;;;;;;4998864;28;90662;-68
2022/03/14 06:34:00;;;;;;;0.83;0.80;;;21.00;44.40;;;;;;4999217;28;93288;-69
2022/03/14 06:36:28;;;;;;;0.77;0.67;;;21.00;44.40;;;;;;4994295;28;91496;-69
2022/03/14 06:38:58;;;;;;;0.93;0.60;;;21.00;44.50;;;;;;4996605;28;88600;-68
2022/03/14 06:41:27;;;;;;;1.70;0.50;;;21.00;44.60;;;;;;4993594;28;90821;-69
2022/03/14 06:43:56;;;;;;;2.43;0.60;;;21.00;44.60;;;;;;4992793;28;90025;-68
2022/03/14 06:46:24;;;;;;;0.60;0.53;;;21.00;44.70;;;;;;4998740;28;89774;-69
2022/03/14 06:48:54;;;;;;;1.00;0.87;;;21.00;44.70;;;;;;4989911;28;88888;-69
2022/03/14 06:51:21;;;;;;;1.53;0.80;;;21.00;44.90;;;;;;4989006;28;90719;-68
2022/03/14 06:53:49;;;;;;;0.57;0.57;;;21.00;44.90;;;;;;4985741;28;89909;-68
2022/03/14 06:56:18;;;;;;;1.70;0.80;;;21.00;45.00;;;;;;4998693;28;88636;-68
2022/03/14 06:58:46;;;;;;;0.50;0.50;;;21.00;45.10;;;;;;4997111;28;89284;-67
2022/03/14 07:01:14;;;;;;;0.77;0.47;;;21.00;45.30;;;;;;4999531;28;90618;-68
2022/03/14 07:03:42;;;;;;;1.40;0.50;;;21.10;45.50;;;;;;4998260;28;90029;-68
2022/03/14 07:06:14;;;;;;;1.23;0.70;;;21.10;45.60;;;;;;4998454;28;89100;-68
2022/03/14 07:08:42;;;;;;;0.77;0.60;;;21.10;45.60;;;;;;4996026;28;88585;-68
2022/03/14 07:11:10;;;;;;;0.70;0.70;;;21.10;45.70;;;;;;4993884;28;89074;-70
2022/03/14 07:13:38;;;;;;;0.67;0.67;;;21.10;45.80;;;;;;4998404;28;89565;-71
2022/03/14 07:16:08;;;;;;;1.60;0.80;;;21.10;46.00;;;;;;4997238;28;88474;-71
2022/03/14 07:18:37;;;;;;;1.73;0.80;;;21.10;46.00;;;;;;4977268;28;89124;-72
2022/03/14 07:21:05;;;;;;;0.60;0.50;;;21.10;46.00;;;;;;4994222;28;91116;-71
2022/03/14 07:23:35;;;;;;;0.80;0.80;;;21.20;46.10;;;;;;4994675;28;90143;-71
2022/03/14 07:26:04;;;;;;;2.50;0.63;;;21.10;46.10;;;;;;4994116;28;88959;-71
2022/03/14 07:28:34;;;;;;;0.30;0.30;;;21.10;46.10;;;;;;4994480;28;88696;-71
2022/03/14 07:31:02;;;;;;;1.50;0.63;;;21.10;46.10;;;;;;4994581;28;90622;-71
2022/03/14 07:33:30;;;;;;;4.20;0.70;;;21.10;46.10;;;;;;4968601;28;88659;-71
2022/03/14 07:35:58;;;;;;;1.67;0.97;;;21.10;46.10;;;;;;4967010;28;90383;-71
2022/03/14 07:38:26;;;;;;;1.47;0.90;;;21.10;46.00;;;;;;4966989;28;88619;-70
2022/03/14 07:40:56;;;;;;;1.30;0.80;;;21.10;46.00;;;;;;4972331;28;90698;-70
2022/03/14 07:43:24;;;;;;;1.57;0.93;;;21.10;46.00;;;;;;4992339;28;89437;-71
2022/03/14 07:45:52;;;;;;;0.90;0.90;;;21.10;45.90;;;;;;4997089;28;89085;-71
2022/03/14 07:48:20;;;;;;;2.57;0.90;;;21.10;45.80;;;;;;4996411;28;88597;-70
2022/03/14 07:50:48;;;;;;;1.20;1.00;;;21.00;45.80;;;;;;4997710;28;90713;-70
2022/03/14 07:53:18;;;;;;;1.83;0.90;;;21.10;45.80;;;;;;4997142;28;90134;-71
2022/03/14 07:55:46;;;;;;;2.17;0.90;;;21.00;45.70;;;;;;4997475;28;89003;-71
2022/03/14 07:58:15;;;;;;;0.77;0.70;;;21.00;45.70;;;;;;4993798;28;88640;-71
2022/03/14 08:00:44;;;;;;;0.97;0.90;;;21.00;45.70;;;;;;4997574;28;90738;-71
2022/03/14 08:03:16;;;;;;;1.27;0.90;;;21.00;45.60;;;;;;4997230;28;88931;-71
2022/03/14 08:05:47;;;;;;;2.57;1.17;;;21.00;45.60;;;;;;4986046;28;88608;-71
2022/03/14 08:08:17;;;;;;;1.17;1.00;;;21.00;45.60;;;;;;4984167;28;90124;-71
2022/03/14 08:10:45;;;;;;;0.93;0.90;;;21.00;45.60;;;;;;4981038;28;92992;-71
2022/03/14 08:13:14;;;;;;;2.07;1.00;;;21.00;45.60;;;;;;4979064;28;90262;-71
2022/03/14 08:15:42;;;;;;;1.10;0.73;;;21.00;45.60;;;;;;4979181;28;88901;-70
2022/03/14 08:18:11;;;;;;;1.43;1.00;;;21.00;45.60;;;;;;4979449;28;88626;-71
2022/03/14 08:20:39;;;;;;;3.70;0.87;;;20.90;45.50;;;;;;4979622;28;89451;-71
2022/03/14 08:23:07;;;;;;;1.90;1.10;;;21.00;45.60;;;;;;4979389;28;89709;-71
2022/03/14 08:25:35;;;;;;;1.50;0.83;;;21.00;45.60;;;;;;4978471;28;89879;-71
2022/03/14 08:28:03;;;;;;;1.30;0.73;;;21.00;45.60;;;;;;4979372;28;88557;-71
2022/03/14 08:30:33;;;;;;;1.50;1.13;;;21.00;45.50;;;;;;4979603;28;90730;-71
2022/03/14 08:33:01;;;;;;;0.90;0.80;;;21.10;45.50;;;;;;4978639;28;90189;-71
2022/03/14 08:35:29;;;;;;;2.50;1.07;;;21.10;45.40;;;;;;4978341;28;89243;-71
2022/03/14 08:37:57;;;;;;;1.77;1.10;;;21.30;45.30;;;;;;4979294;28;88484;-70
2022/03/14 08:40:26;;;;;;;1.67;0.87;;;21.50;45.30;;;;;;4978484;28;91568;-71
2022/03/14 08:42:55;;;;;;;2.33;1.37;;;21.70;45.20;;;;;;4978325;28;90798;-71
2022/03/14 08:45:23;;;;;;;1.00;1.00;;;21.90;45.00;;;;;;4978112;28;88934;-71
2022/03/14 08:47:53;;;;;;;1.70;0.90;;;22.10;44.80;;;;;;4978606;28;88661;-70
2022/03/14 08:50:21;;;;;;;0.57;0.53;;;22.40;44.80;;;;;;4978282;28;90572;-71
2022/03/14 08:52:51;;;;;;;1.20;1.10;;;22.60;44.60;;;;;;4978756;28;92593;-71
2022/03/14 08:55:19;;;;;;;1.43;0.90;;;22.80;44.30;;;;;;4978764;28;91664;-70
2022/03/14 08:57:47;;;;;;;3.37;1.27;;;23.00;44.20;;;;;;4979440;28;88597;-70
2022/03/14 09:00:17;;;;;;;1.33;1.03;;;23.20;44.10;;;;;;4978680;28;90743;-71
2022/03/14 09:02:45;;;;;;;1.17;1.00;;;23.30;43.90;;;;;;4977578;28;90425;-71
2022/03/14 09:05:14;;;;;;;2.10;1.27;;;23.40;43.80;;;;;;4992229;28;90381;-70
2022/03/14 09:07:42;;;;;;;3.17;1.20;;;23.50;43.70;;;;;;4998078;28;88458;-71
2022/03/14 09:10:12;;;;;;;2.93;1.47;;;23.50;43.60;;;;;;4998422;28;89452;-71
2022/03/14 09:12:46;;;;;;;2.07;1.07;;;23.50;43.50;;;;;;4998457;28;89032;-71
2022/03/14 09:15:14;;;;;;;2.10;1.17;;;23.50;43.50;;;;;;4998367;28;92100;-70
2022/03/14 09:17:49;;;;;;;2.37;1.17;;;23.60;43.50;;;;;;4997603;28;88699;-70
2022/03/14 09:20:20;;;;;;;1.10;1.00;;;23.70;43.50;;;;;;4998578;28;90158;-70
2022/03/14 09:22:49;;;;;;;1.43;1.00;;;23.80;43.30;;;;;;4998712;28;90483;-71
2022/03/14 09:25:17;;;;;;;1.60;0.93;;;23.80;43.10;;;;;;4998185;28;88824;-70
2022/03/14 09:27:45;;;;;;;1.53;1.07;;;24.00;43.10;;;;;;4998440;28;88472;-71
2022/03/14 09:30:13;;;;;;;2.33;1.10;;;24.10;43.00;;;;;;4998111;28;90703;-71
2022/03/14 09:32:41;;;;;;;2.23;1.27;;;24.20;42.90;;;;;;4998405;28;88830;-70
2022/03/14 09:35:10;;;;;;;1.50;1.30;;;24.30;42.80;;;;;;4999644;28;89247;-71
2022/03/14 09:37:40;;;;;;;2.47;1.50;;;24.30;42.70;;;;;;5000670;28;88601;-71
2022/03/14 09:40:09;;;;;;;2.30;1.20;;;24.30;42.60;;;;;;5001252;28;90508;-71
2022/03/14 09:42:39;;;;;;;1.67;0.83;;;24.30;42.60;;;;;;5001788;28;89416;-71
2022/03/14 09:45:08;;;;;;;1.63;1.13;;;24.30;42.60;;;;;;5001404;28;89112;-71
2022/03/14 09:47:37;;;;;;;6.13;1.23;;;24.30;42.60;;;;;;5000936;28;88301;-71
2022/03/14 09:50:07;;;;;;;1.27;0.90;;;24.30;42.50;;;;;;5002029;28;90891;-71
2022/03/14 09:52:36;;;;;;;2.63;1.00;;;24.40;42.40;;;;;;5000726;28;89190;-70
2022/03/14 09:55:08;;;;;;;2.90;1.30;;;24.60;42.40;;;;;;5001620;28;88351;-69
2022/03/14 09:57:36;;;;;;;3.13;1.00;;;24.70;42.30;;;;;;4996819;28;88846;-69
2022/03/14 10:00:06;;;;;;;1.93;1.33;;;24.80;42.20;;;;;;5000787;28;92682;-69
2022/03/14 10:02:37;;;;;;;1.40;1.00;;;24.90;42.10;;;;;;4999603;28;89246;-69
2022/03/14 10:05:07;;;;;;;1.87;1.07;;;25.10;42.00;;;;;;4994470;28;88654;-69
2022/03/14 10:07:35;;;;;;;3.03;1.23;;;25.20;41.90;;;;;;5000615;28;88483;-69
2022/03/14 10:10:04;;;;;;;2.73;1.10;;;25.20;41.70;;;;;;5000253;28;90157;-69
2022/03/14 10:12:33;;;;;;;1.17;0.90;;;25.20;41.70;;;;;;4997859;28;89614;-70
2022/03/14 10:15:05;;;;;;;0.90;0.83;;;25.20;41.60;;;;;;4986540;28;88541;-70
2022/03/14 10:17:35;;;;;;;1.97;1.07;;;25.20;41.60;;;;;;5000456;28;89240;-70
2022/03/14 10:20:06;;;;;;;1.80;0.93;;;25.20;41.60;;;;;;4989896;28;90604;-69
2022/03/14 10:22:35;;;;;;;1.87;1.10;;;25.20;41.60;;;;;;4980569;28;89963;-70
2022/03/14 10:25:05;;;;;;;0.87;0.77;;;25.30;41.60;;;;;;4985920;28;88396;-70
2022/03/14 10:27:36;;;;;;;2.50;1.17;;;25.40;46.00;;;;;;4985641;28;88502;-69
2022/03/14 10:30:04;;;;;;;4.03;1.33;;;25.60;40.80;;;;;;4974382;28;90616;-68
2022/03/14 10:32:40;;;;;;;1.43;1.03;;;25.60;41.40;;;;;;4999936;28;90418;-69
2022/03/14 10:35:08;;;;;;;3.67;1.50;;;25.70;41.30;;;;;;4992645;28;88828;-68
2022/03/14 10:37:36;;;;;;;4.13;1.07;;;25.80;41.10;;;;;;4980557;28;88535;-68
2022/03/14 10:40:06;;;;;;;1.70;0.90;;;25.80;41.00;;;;;;4980157;28;91071;-69
2022/03/14 10:42:42;;;;;;;1.83;1.10;;;25.90;40.90;;;;;;4980917;28;92671;-69
2022/03/14 10:45:15;;;;;;;2.37;1.20;;;26.00;41.20;;;;;;4985022;28;89233;-71
2022/03/14 10:47:46;;;;;;;1.83;1.00;;;26.00;40.80;;;;;;4991895;28;88693;-71
2022/03/14 10:50:28;;;;;;;2.33;1.10;;;26.00;40.70;;;;;;4981970;28;89742;-71
2022/03/14 10:53:08;;;;;;;3.37;1.40;;;26.00;40.80;;;;;;4983191;28;88849;-71
2022/03/14 10:55:41;;;;;;;1.30;1.03;;;26.00;40.80;;;;;;4979874;28;90072;-71
2022/03/14 10:58:11;;;;;;;2.70;1.13;;;25.90;40.70;;;;;;5000425;28;88650;-71
2022/03/14 11:00:52;;;;;;;1.17;1.07;;;25.80;40.80;;;;;;4986048;28;90802;-71
2022/03/14 11:03:25;;;;;;;1.40;1.20;;;25.70;40.80;;;;;;4993282;28;90536;-71
2022/03/14 11:05:54;;;;;;;1.30;0.90;;;25.60;40.90;;;;;;4983078;28;88534;-71
2022/03/14 11:08:27;;;;;;;1.90;1.13;;;25.50;40.90;;;;;;4974798;28;88481;-71
2022/03/14 11:10:55;;;;;;;1.97;1.20;;;25.40;41.00;;;;;;4980074;28;90641;-71
2022/03/14 11:13:24;;;;;;;2.57;0.80;;;25.30;41.10;;;;;;4979711;28;90477;-71
2022/03/14 11:15:52;;;;;;;2.63;1.20;;;25.30;41.80;;;;;;4978702;28;89146;-70
2022/03/14 11:18:20;;;;;;;2.47;1.33;;;25.40;41.20;;;;;;4978752;28;88422;-70
2022/03/14 11:20:48;;;;;;;3.33;1.20;;;25.40;41.10;;;;;;4980142;28;93039;-71
2022/03/14 11:23:16;;;;;;;5.03;1.20;;;25.50;41.00;;;;;;4979247;28;89189;-68
2022/03/14 11:25:45;;;;;;;2.10;1.13;;;25.70;41.00;;;;;;4976564;28;88848;-68
2022/03/14 11:28:16;;;;;;;1.83;1.30;;;25.80;40.80;;;;;;4977478;28;89817;-70
2022/03/14 11:30:49;;;;;;;4.20;1.13;;;25.90;40.70;;;;;;4977096;28;90800;-67
2022/03/14 11:33:17;;;;;;;1.43;1.30;;;26.00;40.70;;;;;;4974777;28;88622;-70
2022/03/14 11:35:45;;;;;;;2.83;1.40;;;26.10;40.60;;;;;;4974947;28;89037;-70
2022/03/14 11:38:13;;;;;;;7.00;1.73;;;26.10;40.60;;;;;;4976321;28;88465;-69
2022/03/14 11:40:41;;;;;;;8.63;1.70;;;26.10;40.50;;;;;;4977871;28;90664;-68
2022/03/14 11:43:09;;;;;;;9.90;2.00;;;26.00;41.20;;;;;;4986823;28;89906;-68
2022/03/14 11:45:37;;;;;;;4.47;1.90;;;25.90;40.60;;;;;;4984579;28;90173;-67
2022/03/14 11:48:07;;;;;;;11.33;2.20;;;25.80;40.60;;;;;;4974665;28;88617;-71
2022/03/14 11:50:43;;;;;;;6.80;2.40;;;25.60;40.50;;;;;;4976923;28;90609;-69
2022/03/14 11:53:18;;;;;;;9.33;2.07;;;25.50;41.20;;;;;;4976779;28;89084;-71
2022/03/14 11:55:56;;;;;;;9.00;2.70;;;25.40;41.50;;;;;;4973420;28;88657;-72
2022/03/14 11:58:38;;;;;;;4.90;2.40;;;25.20;41.70;;;;;;4977118;28;88709;-71
2022/03/14 12:01:21;;;;;;;4.67;1.67;;;25.10;41.90;;;;;;4975273;28;90820;-72
2022/03/14 12:03:52;;;;;;;7.53;2.53;;;24.90;41.90;;;;;;4977768;28;88924;-72
2022/03/14 12:06:40;;;;;;;6.30;2.70;;;24.90;42.00;;;;;;4984734;28;88733;-71
2022/03/14 12:09:08;;;;;;;7.07;2.37;;;24.80;42.10;;;;;;4961213;28;88720;-72
2022/03/14 12:11:43;;;;;;;3.40;2.53;;;24.70;42.30;;;;;;4988273;28;93211;-71
2022/03/14 12:14:14;;;;;;;9.83;2.90;;;24.60;42.40;;;;;;4983617;28;90158;-72
2022/03/14 12:16:44;;;;;;;5.10;2.43;;;24.50;42.50;;;;;;4985499;28;88971;-72
2022/03/14 12:19:30;;;;;;;3.93;2.90;;;24.40;42.50;;;;;;4998520;28;88339;-71
2022/03/14 12:21:59;;;;;;;4.70;2.53;;;24.40;42.60;;;;;;4998693;28;91134;-71
2022/03/14 12:24:49;;;;;;;2.33;1.90;;;24.30;42.50;;;;;;4989711;28;89570;-71
2022/03/14 12:27:19;;;;;;;3.00;2.40;;;24.20;42.40;;;;;;4978967;28;88453;-71
2022/03/14 12:29:47;;;;;;;4.40;2.27;;;24.20;42.40;;;;;;4978891;28;88735;-71
2022/03/14 12:32:35;;;;;;;6.57;2.97;;;24.20;42.40;;;;;;4978346;28;89947;-71
2022/03/14 12:35:09;;;;;;;3.47;2.53;;;24.10;42.30;;;;;;4965726;28;89098;-71
2022/03/14 12:37:40;;;;;;;3.27;1.97;;;24.00;42.20;;;;;;4958714;28;88778;-72
2022/03/14 12:40:09;;;;;;;2.80;1.50;;;24.10;42.30;;;;;;4959135;28;88594;-72
2022/03/14 12:42:41;;;;;;;3.37;1.80;;;24.10;42.30;;;;;;4959223;28;90611;-71
2022/03/14 12:45:22;;;;;;;3.90;2.10;;;24.00;42.20;;;;;;4973883;28;88775;-72
2022/03/14 12:47:52;;;;;;;4.47;2.03;;;24.00;42.30;;;;;;4978220;28;88927;-71
2022/03/14 12:50:55;;;;;;;2.67;1.70;;;24.00;42.20;;;;;;4978674;28;88455;-71
2022/03/14 12:53:46;;;;;;;3.53;2.00;;;24.00;42.30;;;;;;4958876;28;90643;-72
2022/03/14 12:56:15;;;;;;;4.47;1.87;;;23.90;42.20;;;;;;4958913;28;92000;-72
2022/03/14 12:58:51;;;;;;;3.30;1.83;;;23.90;42.10;;;;;;4971744;28;88840;-72
2022/03/14 13:01:19;;;;;;;4.90;2.40;;;23.90;42.10;;;;;;4978850;28;88349;-72